CheckWX is a tool to help pilots better visualize weather data.  It is not intended as a substitute for an official pre-flight weather briefing.

07:15:46 UTC

KEKO TAF
Elko Regional Airport
Elko, Nevada, USA
KEKO 200520Z 2006/2106 VRB06KT P6SM SKC FM201800 30020G30KT P6SM FEW080 FM210400 36010G20KT P6SM SKC

Jun-20@
06:00 UTC

Jun-20 @ 06:00 UTC

Jun-20@
18:00 UTC

Jun-20 @ 18:00 UTC

KEKO 200520Z 2006/2106 VRB06KT P6SM SKC
Wind
  • Variable at 6 KTS
Cloud Levels
  • Clear skies

Jun-20@
18:00 UTC

Jun-20 @ 18:00 UTC

Jun-21@
04:00 UTC

Jun-21 @ 04:00 UTC

FM201800 30020G30KT P6SM FEW080

From

From Standard forecast or significant change

Wind
  • 300° at 20 KTS
  • {Gusting to 30 KTS
Cloud Levels
  • Few at 8,000' AGL

Jun-21@
04:00 UTC

Jun-21 @ 04:00 UTC

Jun-21@
06:00 UTC

Jun-21 @ 06:00 UTC

FM210400 36010G20KT P6SM SKC

From

From Standard forecast or significant change

Wind
  • 360° at 10 KTS
  • {Gusting to 20 KTS
Cloud Levels
  • Clear skies